Time;durP1;ratioP1;P1;durP2;ratioP2;P2;SDS_P1;SDS_P2;PMS_P1;PMS_P2;Temp;Humidity;BMP_temperature;BMP_pressure;BME280_temperature;BME280_humidity;BME280_pressure;Samples;Min_cycle;Max_cycle;Signal;HPM_P1;HPM_P2
2021/04/11 00:01:30;;;;;;;47.08;20.83;;;;;;;5.96;77.04;101580.41;5079183;28;20050;-45
2021/04/11 00:03:55;;;;;;;43.88;19.63;;;;;;;6.02;76.67;101574.28;5079694;28;20024;-46
2021/04/11 00:06:21;;;;;;;53.75;22.45;;;;;;;6.01;76.80;101567.31;5077853;28;20543;-46
2021/04/11 00:08:47;;;;;;;50.95;20.80;;;;;;;6.06;77.16;101572.88;5078851;28;20039;-46
2021/04/11 00:11:13;;;;;;;47.63;21.33;;;;;;;6.01;78.16;101568.16;5079074;28;20034;-46
2021/04/11 00:13:39;;;;;;;51.45;23.27;;;;;;;6.11;77.14;101573.09;5080743;28;20081;-46
2021/04/11 00:16:06;;;;;;;51.70;22.15;;;;;;;6.19;76.78;101570.25;5077985;28;20039;-45
2021/04/11 00:18:32;;;;;;;55.35;23.00;;;;;;;6.13;77.92;101560.44;5077668;28;20027;-48
2021/04/11 00:20:58;;;;;;;48.78;21.80;;;;;;;6.21;76.90;101556.75;5077802;28;20042;-46
2021/04/11 00:23:26;;;;;;;46.95;22.83;;;;;;;6.25;76.60;101550.81;5074896;28;22028;-45
2021/04/11 00:25:53;;;;;;;43.38;20.15;;;;;;;6.22;77.77;101551.22;5063676;28;20035;-46
2021/04/11 00:28:19;;;;;;;46.22;19.80;;;;;;;6.29;77.04;101545.94;5075335;28;20509;-46
2021/04/11 00:30:45;;;;;;;48.85;21.40;;;;;;;6.33;77.12;101553.31;5077049;28;20032;-45
2021/04/11 00:33:26;;;;;;;40.92;19.55;;;;;;;6.34;77.27;101562.13;5077647;28;20069;-47
2021/04/11 00:36:01;;;;;;;39.22;20.05;;;;;;;6.31;78.93;101551.88;5079838;28;20543;-45
2021/04/11 00:38:28;;;;;;;50.22;20.80;;;;;;;6.28;78.59;101553.13;5076418;28;20036;-46
2021/04/11 00:40:57;;;;;;;43.90;20.70;;;;;;;6.35;77.47;101537.97;5075669;28;20635;-44
2021/04/11 00:43:24;;;;;;;45.78;20.83;;;;;;;6.34;77.77;101531.00;5078845;28;20032;-47
2021/04/11 00:46:06;;;;;;;42.53;21.17;;;;;;;6.26;78.72;101523.19;5078172;28;20496;-45
2021/04/11 00:48:33;;;;;;;43.13;21.00;;;;;;;6.29;78.42;101528.13;5075781;28;21027;-45
2021/04/11 00:51:04;;;;;;;44.53;20.40;;;;;;;6.33;78.06;101534.69;5076066;28;20036;-46
2021/04/11 00:53:30;;;;;;;46.90;21.30;;;;;;;6.35;78.41;101527.31;5075714;28;20535;-46
2021/04/11 00:55:55;;;;;;;56.08;21.58;;;;;;;6.35;78.74;101522.00;5079880;28;20039;-47
2021/04/11 00:58:23;;;;;;;49.13;21.35;;;;;;;6.30;79.58;101526.31;5073954;28;20024;-48
2021/04/11 01:00:49;;;;;;;46.33;20.00;;;;;;;6.33;79.34;101529.38;5078953;28;20412;-46
2021/04/11 01:03:23;;;;;;;49.58;22.05;;;;;;;6.32;80.10;101530.41;5078230;28;20015;-45
2021/04/11 01:05:49;;;;;;;47.20;21.92;;;;;;;6.31;80.54;101533.25;5072016;28;20025;-45
2021/04/11 01:08:18;;;;;;;48.03;21.15;;;;;;;6.29;80.97;101532.66;5078977;28;20065;-46
2021/04/11 01:11:04;;;;;;;53.03;23.60;;;;;;;6.34;80.03;101530.19;5072537;28;20766;-45
2021/04/11 01:13:31;;;;;;;48.08;20.83;;;;;;;6.38;80.16;101527.94;5077108;28;20078;-46
2021/04/11 01:15:57;;;;;;;40.88;19.23;;;;;;;6.39;79.77;101533.06;5075720;28;20036;-45
2021/04/11 01:18:23;;;;;;;39.72;19.85;;;;;;;6.32;80.60;101525.06;5076809;28;20035;-45
2021/04/11 01:20:49;;;;;;;43.88;20.58;;;;;;;6.34;79.83;101512.38;5076016;28;20504;-45
2021/04/11 01:23:30;;;;;;;47.50;21.23;;;;;;;6.36;79.34;101509.50;5059689;28;20023;-45
2021/04/11 01:25:58;;;;;;;50.22;20.45;;;;;;;6.22;81.34;101516.63;5073742;28;20040;-46
2021/04/11 01:28:47;;;;;;;44.03;21.00;;;;;;;6.14;82.58;101514.16;5076967;28;20080;-45
2021/04/11 01:31:13;;;;;;;45.67;21.58;;;;;;;6.22;81.17;101511.31;5074839;28;20127;-48
2021/04/11 01:33:45;;;;;;;45.30;22.30;;;;;;;6.21;81.46;101509.69;5078490;28;20107;-45
2021/04/11 01:36:14;;;;;;;46.15;22.20;;;;;;;6.21;82.12;101511.53;5075884;28;21080;-47
2021/04/11 01:38:43;;;;;;;42.45;20.98;;;;;;;6.22;82.01;101506.00;5079197;28;20028;-45
2021/04/11 01:41:19;;;;;;;44.22;21.77;;;;;;;6.27;80.81;101505.38;5077328;28;20097;-45
2021/04/11 01:43:46;;;;;;;42.13;19.83;;;;;;;6.26;81.40;101491.25;5075317;28;20039;-45
2021/04/11 01:46:13;;;;;;;40.83;20.75;;;;;;;6.29;81.08;101485.56;5078595;28;20103;-46
2021/04/11 01:48:39;;;;;;;43.72;21.15;;;;;;;6.29;81.11;101487.41;5074154;28;20474;-45
2021/04/11 01:51:09;;;;;;;40.83;20.08;;;;;;;6.31;80.53;101472.88;5077926;28;20111;-46
2021/04/11 01:53:36;;;;;;;42.53;21.60;;;;;;;6.25;81.37;101473.66;5077503;28;20032;-46
2021/04/11 01:56:03;;;;;;;47.17;22.98;;;;;;;6.22;82.12;101465.25;5076091;28;20024;-45
2021/04/11 01:58:29;;;;;;;38.75;19.35;;;;;;;6.21;81.59;101461.78;5077824;28;20482;-45
2021/04/11 02:01:13;;;;;;;35.85;19.50;;;;;;;6.18;82.06;101456.88;5078540;28;20118;-45
2021/04/11 02:03:39;;;;;;;41.03;20.83;;;;;;;6.24;81.42;101442.75;5075276;28;20165;-45
2021/04/11 02:06:06;;;;;;;40.13;19.70;;;;;;;6.29;81.16;101444.81;5074016;28;20107;-46
2021/04/11 02:08:36;;;;;;;39.08;19.50;;;;;;;6.26;81.14;101432.72;5076613;28;20049;-45
2021/04/11 02:11:04;;;;;;;36.22;19.17;;;;;;;6.27;80.87;101433.53;5075430;28;20069;-46
2021/04/11 02:13:33;;;;;;;36.60;20.05;;;;;;;6.35;80.38;101426.19;5077833;28;20027;-45
2021/04/11 02:16:01;;;;;;;36.13;19.48;;;;;;;6.44;79.91;101418.81;5061438;28;20028;-45
2021/04/11 02:18:30;;;;;;;34.22;18.58;;;;;;;6.51;79.49;101416.97;5075123;28;20107;-45
2021/04/11 02:20:58;;;;;;;33.85;19.25;;;;;;;6.45;79.83;101409.78;5077121;28;20558;-46
2021/04/11 02:23:25;;;;;;;41.63;19.92;;;;;;;6.42;80.17;101409.38;5079213;28;20048;-45
2021/04/11 02:25:53;;;;;;;35.92;18.85;;;;;;;6.39;80.39;101399.97;5078765;28;20048;-46
2021/04/11 02:28:23;;;;;;;37.78;20.13;;;;;;;6.36;80.39;101401.22;5079507;28;20771;-46
2021/04/11 02:30:54;;;;;;;36.97;21.15;;;;;;;6.33;80.95;101398.97;5078715;28;20051;-45
2021/04/11 02:33:22;;;;;;;38.53;22.05;;;;;;;6.27;81.01;101405.06;5078272;28;21932;-45
2021/04/11 02:35:48;;;;;;;38.65;20.38;;;;;;;6.29;80.74;101392.41;5078258;28;20036;-46
2021/04/11 02:38:15;;;;;;;42.92;22.45;;;;;;;6.27;81.16;101391.78;5059868;28;20565;-45
2021/04/11 02:40:44;;;;;;;38.53;21.60;;;;;;;6.24;81.05;101386.88;5079959;28;20032;-46
2021/04/11 02:43:12;;;;;;;46.25;25.73;;;;;;;6.23;81.45;101395.06;5061564;28;20031;-45
2021/04/11 02:45:41;;;;;;;42.67;23.85;;;;;;;6.28;81.23;101396.09;5081246;28;20038;-45
2021/04/11 02:48:10;;;;;;;43.33;24.33;;;;;;;6.29;81.38;101388.94;5079625;28;20028;-46
2021/04/11 02:50:38;;;;;;;45.58;25.42;;;;;;;6.25;81.27;101388.50;5078131;28;20082;-45
2021/04/11 02:53:12;;;;;;;43.97;25.02;;;;;;;6.23;81.32;101379.91;5080073;28;20028;-45
2021/04/11 02:55:40;;;;;;;45.13;24.37;;;;;;;6.26;81.20;101373.34;5080206;28;20032;-45
2021/04/11 02:58:08;;;;;;;47.97;24.70;;;;;;;6.24;81.55;101376.22;5078388;28;20038;-45
2021/04/11 03:00:37;;;;;;;48.42;26.17;;;;;;;6.25;81.17;101377.84;5081186;28;20032;-46
2021/04/11 03:03:04;;;;;;;51.97;28.08;;;;;;;6.22;81.61;101374.78;5079985;28;20074;-45
2021/04/11 03:05:30;;;;;;;54.50;26.55;;;;;;;6.28;81.29;101374.81;5075409;28;20094;-45
2021/04/11 03:08:01;;;;;;;55.08;27.50;;;;;;;6.23;82.04;101369.25;5078943;28;20027;-45
2021/04/11 03:10:29;;;;;;;51.05;27.10;;;;;;;6.21;81.77;101366.00;5079558;28;20093;-45
2021/04/11 03:12:56;;;;;;;54.88;28.38;;;;;;;6.23;81.98;101366.59;5077156;28;20028;-45
2021/04/11 03:15:24;;;;;;;58.17;30.67;;;;;;;6.21;82.61;101366.00;5077479;28;20628;-44
2021/04/11 03:17:51;;;;;;;56.80;28.38;;;;;;;6.24;81.81;101360.25;5080458;28;20030;-48
2021/04/11 03:20:39;;;;;;;52.28;27.40;;;;;;;6.19;82.25;101357.38;5079260;28;20023;-46
2021/04/11 03:23:07;;;;;;;63.38;30.10;;;;;;;6.19;82.40;101354.72;5079195;28;20035;-45
2021/04/11 03:25:35;;;;;;;51.58;28.45;;;;;;;6.21;82.30;101354.53;5081711;28;20045;-45
2021/04/11 03:28:25;;;;;;;55.47;28.70;;;;;;;6.24;82.36;101348.78;5079152;28;20111;-45
2021/04/11 03:31:04;;;;;;;59.50;30.42;;;;;;;6.23;82.07;101337.31;5079410;28;20509;-45
2021/04/11 03:33:34;;;;;;;58.70;28.67;;;;;;;6.23;82.35;101341.84;5077310;28;20032;-45
2021/04/11 03:36:00;;;;;;;57.25;29.48;;;;;;;6.18;82.58;101334.47;5080407;28;20401;-45
2021/04/11 03:38:28;;;;;;;62.03;30.35;;;;;;;6.20;82.65;101329.75;5078553;28;20654;-45
2021/04/11 03:40:57;;;;;;;59.60;30.40;;;;;;;6.23;82.39;101320.53;5080692;28;20062;-45
2021/04/11 03:43:37;;;;;;;54.75;29.08;;;;;;;6.15;83.74;101318.91;5079713;28;20107;-46
2021/04/11 03:46:09;;;;;;;63.95;31.52;;;;;;;6.18;82.79;101321.16;5080390;28;20081;-45
2021/04/11 03:48:44;;;;;;;59.75;30.08;;;;;;;6.21;83.09;101312.75;5079272;28;20043;-45
2021/04/11 03:51:23;;;;;;;59.72;29.88;;;;;;;6.21;82.59;101311.94;5079660;28;20120;-46
2021/04/11 03:53:58;;;;;;;60.20;30.95;;;;;;;6.20;82.82;101316.47;5077414;28;20136;-46
2021/04/11 03:56:27;;;;;;;61.55;30.67;;;;;;;6.18;82.69;101315.03;5078225;28;20478;-44
2021/04/11 03:58:59;;;;;;;66.13;31.13;;;;;;;6.18;83.27;101317.69;5077333;28;20118;-45
2021/04/11 04:01:28;;;;;;;60.03;32.20;;;;;;;6.17;83.20;101316.06;5079346;28;20120;-45
2021/04/11 04:03:59;;;;;;;59.47;31.27;;;;;;;6.25;82.85;101313.16;5078987;28;20036;-48
2021/04/11 04:06:31;;;;;;;64.60;33.75;;;;;;;6.19;83.12;101306.84;5076770;28;20028;-45
2021/04/11 04:08:57;;;;;;;61.40;31.05;;;;;;;6.23;83.24;101302.72;5078985;28;20486;-46
2021/04/11 04:11:28;;;;;;;64.97;33.58;;;;;;;6.22;83.09;101302.94;5077773;28;20032;-44
2021/04/11 04:14:27;;;;;;;64.28;34.17;;;;;;;6.23;82.53;101294.75;5077528;28;20024;-45
2021/04/11 04:17:19;;;;;;;64.05;33.97;;;;;;;6.23;82.69;101294.75;5077880;28;20036;-45
2021/04/11 04:20:11;;;;;;;65.63;32.53;;;;;;;6.18;83.96;101299.88;5077825;28;20028;-45
2021/04/11 04:23:08;;;;;;;64.10;32.58;;;;;;;6.25;83.01;101286.56;5080450;28;20604;-46
2021/04/11 04:25:51;;;;;;;63.83;32.17;;;;;;;6.27;82.71;101279.19;5075471;28;20028;-45
2021/04/11 04:28:54;;;;;;;61.05;31.15;;;;;;;6.26;82.80;101289.00;5076516;28;20024;-47
2021/04/11 04:32:07;;;;;;;68.63;32.85;;;;;;;6.25;83.10;101284.72;5078055;28;20028;-45
2021/04/11 04:35:04;;;;;;;67.00;32.80;;;;;;;6.19;83.63;101280.22;5034299;28;20402;-46
2021/04/11 04:37:52;;;;;;;61.80;31.45;;;;;;;6.27;83.23;101280.00;5062085;28;20065;-46
2021/04/11 04:40:24;;;;;;;62.88;32.08;;;;;;;6.27;83.16;101269.34;5077640;28;20021;-46
2021/04/11 04:42:54;;;;;;;69.07;32.22;;;;;;;6.32;82.71;101266.09;5078130;28;20024;-46
2021/04/11 04:45:32;;;;;;;68.70;32.75;;;;;;;6.26;83.11;101266.91;5072557;28;20035;-45
2021/04/11 04:48:16;;;;;;;65.22;34.03;;;;;;;6.33;83.03;101262.41;5079070;28;20040;-44
2021/04/11 04:50:48;;;;;;;65.45;32.75;;;;;;;6.33;82.96;101263.22;5078359;28;20120;-45
2021/04/11 04:53:27;;;;;;;66.95;33.15;;;;;;;6.38;82.82;101267.91;5076691;28;20144;-48
2021/04/11 04:55:55;;;;;;;63.92;32.55;;;;;;;6.39;82.54;101256.25;5075391;28;20063;-44
2021/04/11 04:58:38;;;;;;;62.33;33.47;;;;;;;6.35;82.99;101258.50;5076966;28;20027;-45
2021/04/11 05:01:18;;;;;;;67.07;34.65;;;;;;;6.34;82.96;101258.72;5078460;28;20024;-45
2021/04/11 05:03:50;;;;;;;61.40;32.33;;;;;;;6.34;82.74;101262.19;5079234;28;20020;-45
2021/04/11 05:06:26;;;;;;;65.25;33.25;;;;;;;6.35;83.15;101258.50;5075807;28;20416;-44
2021/04/11 05:09:05;;;;;;;66.63;34.35;;;;;;;6.35;82.87;101261.19;5076889;28;20034;-46
2021/04/11 05:11:45;;;;;;;68.13;35.47;;;;;;;6.31;83.35;101254.63;5079321;28;20028;-44
2021/04/11 05:14:15;;;;;;;70.15;35.40;;;;;;;6.40;82.66;101254.41;5078607;28;20031;-45
2021/04/11 05:17:05;;;;;;;70.15;35.38;;;;;;;6.46;82.89;101250.91;5076663;28;20279;-45
2021/04/11 05:19:37;;;;;;;66.00;34.63;;;;;;;6.42;82.57;101250.50;5078046;28;20103;-45
2021/04/11 05:22:10;;;;;;;74.03;38.38;;;;;;;6.42;82.87;101255.00;5078572;28;20031;-45
2021/04/11 05:24:42;;;;;;;73.57;36.90;;;;;;;6.39;83.04;101253.59;5057571;28;20065;-46
2021/04/11 05:27:13;;;;;;;73.35;36.97;;;;;;;6.43;82.64;101248.66;5077022;28;20056;-45
2021/04/11 05:29:50;;;;;;;69.55;35.65;;;;;;;6.49;82.51;101251.31;5075493;28;20090;-46
2021/04/11 05:32:16;;;;;;;75.50;37.38;;;;;;;6.50;82.54;101252.13;5075374;28;20035;-47
2021/04/11 05:34:43;;;;;;;70.68;35.80;;;;;;;6.48;82.84;101248.88;5075248;28;20598;-46
2021/04/11 05:37:49;;;;;;;70.72;37.55;;;;;;;6.57;82.22;101252.94;5075753;28;20028;-50
2021/04/11 05:40:33;;;;;;;74.80;37.10;;;;;;;6.63;81.72;101254.75;5017338;28;20247;-46
2021/04/11 05:43:27;;;;;;;68.30;36.47;;;;;;;6.62;81.75;101243.28;5017258;28;20590;-45
2021/04/11 05:46:11;;;;;;;68.10;36.17;;;;;;;6.63;81.90;101242.25;5061914;28;20399;-46
2021/04/11 05:48:47;;;;;;;65.78;35.00;;;;;;;6.73;81.23;101241.00;5075035;28;22002;-46
2021/04/11 05:51:22;;;;;;;79.25;37.72;;;;;;;6.74;82.37;101245.31;5078319;28;20035;-46
2021/04/11 05:54:04;;;;;;;69.35;35.03;;;;;;;6.85;81.11;101234.81;5078809;28;20031;-46
2021/04/11 05:56:41;;;;;;;75.78;38.22;;;;;;;6.87;81.56;101232.75;5077820;28;20031;-48
2021/04/11 05:59:18;;;;;;;76.43;36.55;;;;;;;6.96;80.30;101234.13;5079213;28;20028;-45
2021/04/11 06:01:48;;;;;;;67.20;37.17;;;;;;;6.98;80.83;101233.91;5083684;28;20047;-45
2021/04/11 06:04:17;;;;;;;72.30;34.13;;;;;;;7.02;80.22;101234.34;5081130;28;20109;-46
2021/04/11 06:07:16;;;;;;;64.45;32.22;;;;;;;7.01;80.10;101230.03;5080179;28;20630;-45
2021/04/11 06:09:48;;;;;;;69.93;37.33;;;;;;;7.03;80.30;101214.66;5081453;28;20035;-45
2021/04/11 06:12:35;;;;;;;73.32;36.47;;;;;;;7.15;79.97;101212.94;5081052;28;20119;-46
2021/04/11 06:15:21;;;;;;;71.75;36.70;;;;;;;7.18;79.86;101226.66;5077695;28;20510;-45
2021/04/11 06:17:49;;;;;;;68.50;36.42;;;;;;;7.32;79.21;101213.25;5081702;28;20034;-46
2021/04/11 06:20:16;;;;;;;74.88;38.80;;;;;;;7.28;80.02;101229.66;5080171;28;20023;-46
2021/04/11 06:22:49;;;;;;;64.00;35.85;;;;;;;7.35;79.36;101218.94;5081020;28;20191;-46
2021/04/11 06:25:42;;;;;;;73.13;37.80;;;;;;;7.42;79.25;101206.41;5078506;28;20490;-45
2021/04/11 06:28:12;;;;;;;62.67;35.95;;;;;;;7.42;79.19;101214.41;5079610;28;20036;-45
2021/04/11 06:30:52;;;;;;;66.88;36.42;;;;;;;7.48;78.37;101207.38;5081802;28;20056;-46
2021/04/11 06:33:25;;;;;;;72.50;37.85;;;;;;;7.33;79.41;101221.00;5078095;28;20030;-45
2021/04/11 06:36:00;;;;;;;74.00;38.13;;;;;;;7.24;80.36;101222.31;5080165;28;20016;-46
2021/04/11 06:38:34;;;;;;;68.50;37.58;;;;;;;7.31;80.04;101215.09;5078550;28;20068;-45
2021/04/11 06:41:33;;;;;;;65.78;36.42;;;;;;;7.38;79.69;101221.22;5078555;28;20032;-45
2021/04/11 06:44:32;;;;;;;66.93;36.35;;;;;;;7.35;79.52;101218.94;5078785;28;20036;-44
2021/04/11 06:47:44;;;;;;;69.05;37.85;;;;;;;7.39;80.19;101214.84;5074349;28;20045;-45
2021/04/11 06:50:44;;;;;;;67.68;36.65;;;;;;;7.47;79.14;101219.91;5079235;28;20035;-45
2021/04/11 06:53:43;;;;;;;69.63;39.80;;;;;;;7.52;78.98;101216.56;5077039;28;20024;-45
2021/04/11 06:56:20;;;;;;;71.97;38.42;;;;;;;7.56;78.87;101218.63;5075469;28;20031;-46
2021/04/11 06:58:59;;;;;;;71.55;37.83;;;;;;;7.63;78.93;101220.41;5080561;28;20106;-45
2021/04/11 07:01:55;;;;;;;71.07;39.00;;;;;;;7.68;78.80;101212.56;5075963;28;20028;-46
2021/04/11 07:04:45;;;;;;;66.70;36.80;;;;;;;7.81;77.86;101213.28;5079063;28;20038;-45
2021/04/11 07:07:20;;;;;;;65.32;36.45;;;;;;;7.86;78.49;101205.44;5074728;28;20032;-45
2021/04/11 07:10:05;;;;;;;71.90;38.20;;;;;;;8.02;77.95;101206.72;5075238;28;20030;-45
2021/04/11 07:13:00;;;;;;;73.78;39.47;;;;;;;8.22;77.12;101203.03;5074935;28;20430;-45
2021/04/11 07:15:42;;;;;;;72.57;38.83;;;;;;;8.37;77.89;101208.88;5074371;28;21008;-46
2021/04/11 07:18:35;;;;;;;63.28;35.17;;;;;;;8.51;76.76;101206.88;5076463;28;20036;-45
2021/04/11 07:21:17;;;;;;;66.13;37.83;;;;;;;8.63;76.41;101205.09;5079377;28;20043;-46
2021/04/11 07:24:00;;;;;;;68.60;37.25;;;;;;;8.74;76.18;101197.13;5079454;28;22136;-45
2021/04/11 07:26:50;;;;;;;67.40;36.42;;;;;;;8.85;75.50;101194.75;5076388;28;20032;-45
2021/04/11 07:29:51;;;;;;;61.83;37.00;;;;;;;8.93;76.36;101191.75;5078232;28;20386;-46
2021/04/11 07:32:22;;;;;;;68.32;37.25;;;;;;;9.19;74.65;101180.72;4995416;28;20060;-45
2021/04/11 07:35:12;;;;;;;62.85;36.60;;;;;;;9.27;73.96;101177.69;5062219;28;20106;-45
2021/04/11 07:38:03;;;;;;;58.67;34.88;;;;;;;9.31;73.91;101181.53;5078444;28;20050;-45
2021/04/11 07:41:06;;;;;;;59.63;35.15;;;;;;;9.31;73.53;101173.50;5034776;28;20036;-45
2021/04/11 07:44:06;;;;;;;58.42;33.50;;;;;;;9.33;72.99;101158.06;5071724;28;20032;-46
2021/04/11 07:47:06;;;;;;;64.07;35.95;;;;;;;9.23;74.44;101157.81;5065654;28;20520;-46
2021/04/11 07:50:04;;;;;;;63.97;35.40;;;;;;;9.43;73.41;101159.38;5073508;28;20093;-46
2021/04/11 07:53:31;;;;;;;68.53;37.45;;;;;;;9.57;73.54;101158.09;5074956;28;20031;-46
2021/04/11 07:56:11;;;;;;;62.65;34.65;;;;;;;9.74;72.55;101148.34;4983616;28;20038;-45
2021/04/11 07:59:06;;;;;;;64.63;36.58;;;;;;;9.72;73.37;101153.13;5068276;28;20694;-47
2021/04/11 08:02:01;;;;;;;65.13;37.55;;;;;;;9.78;73.09;101138.00;5075935;28;20039;-46
2021/04/11 08:05:04;;;;;;;56.95;34.33;;;;;;;9.82;72.70;101131.13;5078599;28;20024;-45
2021/04/11 08:08:06;;;;;;;60.13;34.78;;;;;;;9.99;71.89;101130.16;5078011;28;20028;-46
2021/04/11 08:10:37;;;;;;;59.55;32.92;;;;;;;10.17;71.28;101126.53;5080813;28;20115;-45
2021/04/11 08:13:33;;;;;;;60.50;33.67;;;;;;;10.32;71.92;101117.22;5080644;28;20031;-46
2021/04/11 08:16:03;;;;;;;;;;;;;;;10.44;70.44;101121.50;5079702;28;20028;-47
2021/04/11 08:19:04;;;;;;;56.58;32.05;;;;;;;10.59;70.13;101112.94;5079072;28;19959;-46
2021/04/11 08:21:46;;;;;;;52.13;31.27;;;;;;;11.12;68.99;101117.91;5071621;28;20035;-45
2021/04/11 08:24:44;;;;;;;54.15;32.70;;;;;;;11.62;67.72;101110.94;5079084;28;20043;-45
2021/04/11 08:27:32;;;;;;;54.78;29.73;;;;;;;11.93;66.71;101104.97;5075821;28;20024;-45
2021/04/11 08:30:31;;;;;;;51.53;32.05;;;;;;;12.17;66.13;101102.03;5080273;28;20115;-46
2021/04/11 08:32:59;;;;;;;53.28;31.40;;;;;;;12.04;66.01;101098.69;5074875;28;20028;-47
2021/04/11 08:35:47;;;;;;;48.28;29.20;;;;;;;11.95;66.65;101099.34;5070693;28;20036;-46
2021/04/11 08:38:24;;;;;;;49.85;29.48;;;;;;;12.13;65.43;101096.34;5070852;28;20040;-45
2021/04/11 08:41:28;;;;;;;45.00;26.13;;;;;;;11.76;65.25;101101.47;5079817;28;20520;-45
2021/04/11 08:44:08;;;;;;;47.03;28.90;;;;;;;12.17;64.49;101089.41;4993763;28;20047;-46
2021/04/11 08:47:05;;;;;;;47.55;30.48;;;;;;;12.29;64.73;101079.38;5078125;28;20025;-46
2021/04/11 08:49:49;;;;;;;48.78;30.35;;;;;;;12.73;63.38;101081.97;5075921;28;20039;-46
2021/04/11 08:52:58;;;;;;;45.22;27.30;;;;;;;12.98;61.26;101078.72;5077571;28;20034;-49
2021/04/11 08:55:35;;;;;;;45.03;25.40;;;;;;;13.25;61.80;101081.38;5075787;28;20039;-45
2021/04/11 08:58:23;;;;;;;44.70;26.80;;;;;;;13.73;60.61;101072.28;5078231;28;20031;-45
2021/04/11 09:01:08;;;;;;;40.65;23.33;;;;;;;14.08;58.13;101081.63;5077963;28;20038;-45
2021/04/11 09:03:52;;;;;;;41.53;24.60;;;;;;;14.00;57.88;101068.63;5075070;28;20035;-47
2021/04/11 09:07:08;;;;;;;40.05;24.90;;;;;;;14.22;57.30;101066.59;5075522;28;20955;-45
2021/04/11 09:09:52;;;;;;;37.05;22.60;;;;;;;14.28;56.13;101067.41;5003134;28;20699;-46
2021/04/11 09:13:15;;;;;;;34.13;22.83;;;;;;;14.37;57.83;101071.22;5073594;28;20035;-47
2021/04/11 09:16:01;;;;;;;37.25;22.58;;;;;;;14.23;56.24;101064.72;5014676;28;20593;-45
2021/04/11 09:18:32;;;;;;;38.70;23.65;;;;;;;14.33;57.22;101056.63;5015553;28;20039;-46
2021/04/11 09:21:16;;;;;;;36.42;22.92;;;;;;;14.33;56.89;101056.63;5052848;28;20150;-46
2021/04/11 09:23:53;;;;;;;36.13;22.35;;;;;;;14.37;56.20;101060.44;5076612;28;20042;-45
2021/04/11 09:26:37;;;;;;;31.25;20.77;;;;;;;14.11;55.46;101054.16;5060491;28;20038;-46
2021/04/11 09:29:26;;;;;;;29.93;19.40;;;;;;;14.21;55.76;101055.00;5075840;28;20035;-45
2021/04/11 09:31:52;;;;;;;35.42;20.20;;;;;;;14.48;55.69;101051.31;5079302;28;20028;-46
2021/04/11 09:34:59;;;;;;;31.05;17.70;;;;;;;13.37;55.40;101044.34;5078504;28;20094;-46
2021/04/11 09:38:06;;;;;;;31.25;20.02;;;;;;;13.19;57.70;101050.13;5080499;28;20032;-46
2021/04/11 09:41:13;;;;;;;31.05;20.42;;;;;;;13.32;58.03;101044.31;5029497;28;20039;-46
2021/04/11 09:44:06;;;;;;;33.42;21.23;;;;;;;13.91;56.53;101042.22;5013476;28;20522;-45
2021/04/11 09:46:50;;;;;;;33.28;21.08;;;;;;;14.40;55.96;101038.34;5074708;28;20111;-46
2021/04/11 09:49:37;;;;;;;29.92;20.02;;;;;;;14.58;55.01;101028.97;5078175;28;20105;-46
2021/04/11 09:52:33;;;;;;;30.52;18.95;;;;;;;14.52;54.45;101034.34;5076565;28;20505;-46
2021/04/11 09:55:34;;;;;;;32.97;19.88;;;;;;;14.32;55.18;101041.53;5079105;28;20027;-47
2021/04/11 09:58:00;;;;;;;31.70;20.80;;;;;;;14.73;54.90;101045.19;5036817;28;20042;-47
2021/04/11 10:00:50;;;;;;;29.30;18.95;;;;;;;14.48;53.74;101032.44;5075336;28;20028;-50
2021/04/11 10:03:40;;;;;;;39.97;25.40;;;;;;;15.03;53.50;101030.88;5079046;28;20505;-47
2021/04/11 10:06:21;;;;;;;27.80;17.67;;;;;;;15.32;53.42;101020.31;5071929;28;20041;-47
2021/04/11 10:09:25;;;;;;;29.52;18.45;;;;;;;15.53;51.81;101018.38;5076692;28;21945;-47
2021/04/11 10:12:28;;;;;;;27.33;18.00;;;;;;;15.66;51.00;101015.94;5071277;28;20409;-46
2021/04/11 10:15:02;;;;;;;27.55;17.15;;;;;;;15.94;51.26;101011.78;5075480;28;20119;-48
2021/04/11 10:18:03;;;;;;;32.65;19.05;;;;;;;16.04;50.57;101013.63;5078825;28;20745;-47
2021/04/11 10:21:06;;;;;;;33.17;19.58;;;;;;;16.21;51.05;101014.09;5064498;28;20106;-47
2021/04/11 10:24:00;;;;;;;28.80;18.65;;;;;;;16.34;50.73;101023.50;5076040;28;20036;-45
2021/04/11 10:27:03;;;;;;;27.15;18.40;;;;;;;16.25;49.41;101014.34;5075003;28;20028;-46
2021/04/11 10:29:32;;;;;;;30.90;17.98;;;;;;;16.34;50.42;101018.06;5078081;28;20024;-47
2021/04/11 10:32:29;;;;;;;28.95;19.70;;;;;;;16.36;48.21;101018.59;5077379;28;20034;-46
2021/04/11 10:35:06;;;;;;;29.85;19.80;;;;;;;16.74;49.84;101016.22;5068835;28;20078;-47
2021/04/11 10:37:41;;;;;;;29.48;19.73;;;;;;;16.85;49.37;101017.72;5071243;28;20038;-47
2021/04/11 10:40:16;;;;;;;;;;;;;;;16.89;49.37;101025.03;5073370;28;20032;-46
2021/04/11 10:42:50;;;;;;;33.03;18.58;;;;;;;17.05;48.27;101019.44;5069489;28;19926;-47
2021/04/11 10:45:29;;;;;;;27.95;18.33;;;;;;;15.71;49.54;101028.63;5073381;28;20032;-46
2021/04/11 10:48:09;;;;;;;30.13;18.85;;;;;;;15.23;52.34;101036.25;5076770;28;20024;-45
2021/04/11 10:50:44;;;;;;;27.95;18.98;;;;;;;16.19;51.16;101035.19;5071956;28;20039;-45
2021/04/11 10:53:50;;;;;;;29.52;18.63;;;;;;;16.77;49.71;101021.06;5074306;28;20038;-46
2021/04/11 10:56:56;;;;;;;28.05;18.90;;;;;;;16.94;49.37;101028.75;5073303;28;20527;-47
2021/04/11 10:59:36;;;;;;;31.08;19.27;;;;;;;16.21;49.30;101030.31;5072474;28;20612;-46
2021/04/11 11:02:51;;;;;;;27.40;19.48;;;;;;;16.80;48.37;101020.47;5073209;28;20092;-47
2021/04/11 11:05:32;;;;;;;28.50;19.23;;;;;;;17.24;48.65;101019.56;5072939;28;20716;-48
2021/04/11 11:08:21;;;;;;;26.30;19.20;;;;;;;16.07;51.00;101017.69;5071520;28;20032;-47
2021/04/11 11:11:12;;;;;;;28.25;19.08;;;;;;;16.82;49.38;101004.75;5074191;28;20054;-46
2021/04/11 11:13:47;;;;;;;27.45;19.30;;;;;;;17.06;47.59;101002.16;5056475;28;20028;-46
2021/04/11 11:16:18;;;;;;;;;;;;;;;17.63;48.08;101009.41;5074759;28;20124;-48
2021/04/11 11:19:13;;;;;;;23.95;18.02;;;;;;;18.06;47.25;100999.38;5075260;28;20034;-46
2021/04/11 11:21:38;;;;;;;27.52;17.25;;;;;;;18.27;47.10;101001.81;5071769;28;20047;-46
2021/04/11 11:24:16;;;;;;;21.73;15.95;;;;;;;18.52;45.75;100993.31;5075458;28;20153;-48
2021/04/11 11:26:45;;;;;;;23.90;15.90;;;;;;;18.80;47.34;100988.81;5075621;28;20131;-47
2021/04/11 11:29:33;;;;;;;22.27;14.98;;;;;;;19.05;45.51;100987.59;5059298;28;22288;-47
2021/04/11 11:32:06;;;;;;;23.55;15.93;;;;;;;19.24;44.35;100982.88;5034966;28;20063;-48
2021/04/11 11:35:01;;;;;;;23.40;15.18;;;;;;;19.37;44.87;100978.56;5072430;28;20024;-46
2021/04/11 11:37:45;;;;;;;23.75;15.10;;;;;;;19.54;44.84;100978.78;5075234;28;20032;-47
2021/04/11 11:40:29;;;;;;;22.45;14.05;;;;;;;19.12;43.77;100976.31;5072603;28;20036;-47
2021/04/11 11:43:25;;;;;;;21.23;14.50;;;;;;;19.48;42.66;100966.38;5072012;28;20028;-46
2021/04/11 11:45:51;;;;;;;19.90;13.00;;;;;;;19.17;42.56;100968.06;5072398;28;20028;-47
2021/04/11 11:48:39;;;;;;;19.65;13.13;;;;;;;19.44;43.44;100954.53;5069923;28;20028;-48
2021/04/11 11:51:12;;;;;;;20.10;13.00;;;;;;;19.87;43.72;100951.47;5068346;28;20061;-48
2021/04/11 11:53:47;;;;;;;21.05;14.13;;;;;;;20.20;42.20;100960.25;5067205;28;20037;-47
2021/04/11 11:56:18;;;;;;;19.83;12.63;;;;;;;20.35;42.04;100959.09;5068918;28;20115;-47
2021/04/11 11:58:50;;;;;;;18.10;12.55;;;;;;;20.44;41.50;100957.28;5073791;28;20059;-46
2021/04/11 12:01:34;;;;;;;21.08;12.48;;;;;;;20.37;41.16;100956.88;5077299;28;20070;-48
2021/04/11 12:04:14;;;;;;;19.02;12.32;;;;;;;20.17;39.44;100958.97;5073067;28;20036;-47
2021/04/11 12:06:53;;;;;;;17.60;11.00;;;;;;;20.85;42.91;100951.63;5072921;28;20031;-48
2021/04/11 12:09:30;;;;;;;14.73;10.77;;;;;;;21.99;38.63;100957.97;5073612;28;20031;-47
2021/04/11 12:12:12;;;;;;;16.40;11.45;;;;;;;23.84;33.40;100953.34;5072074;28;20383;-47